Mitchellville, MD (20721)

7:09 PM EST on February 08, 2016 (GMT -0500)
Northridge | | Change Station
CLOSE
Current Station
Personal Weather Station
Location: Bowie, MD
Elevation: 157 ft
Nearby Weather Stations
Active Advisory: Winter Weather Advisory

Elev 157 ft 38.99 °N, 76.80 °W | Updated 7 seconds ago

Overcast
Overcast
41.5 °F
Feels Like 42 °F
N
0.0
Wind Variable Wind from NW
Gusts 0.0 mph

Today
High -- | Low -- °F
--% Chance of Precip.
Yesterday
High -- | Low -- °F
Precip. -- in
Pressure 29.71 in
Visibility 10.0 miles
Clouds Mostly Cloudy 5000 ft
Mostly Cloudy 5500 ft
Overcast 7500 ft
Windchill 42 °F
Dew Point 28 °F
Humidity 58%
Rainfall 0.00 in
Snow Depth Not available.
7:07 AM 5:36 PM
New Moon, 0% visible
METAR KCGS 082350Z AUTO 14006KT 10SM BKN050 BKN055 OVC075 06/M01 A2971 RMK AO1
Pressure 29.71 in
Visibility 10.0 miles
Clouds Mostly Cloudy 5000 ft
Mostly Cloudy 5500 ft
Overcast 7500 ft
Windchill 42 °F
Dew Point 28 °F
Humidity 58%
Rainfall 0.00 in
Snow Depth Not available.
7:07 AM 5:36 PM
New Moon, 0% visible
METAR KCGS 082350Z AUTO 14006KT 10SM BKN050 BKN055 OVC075 06/M01 A2971 RMK AO1

10-Day Weather Forecast

Almanac

Astronomy

Feb. 08, 2016 Rise Set
Actual Time
Civil Twilight
Nautical Twilight
Astronomical Twilight
Moon
Length of Visible Light
Length of Day
Tomorrow will be .
, % of the Moon is Illuminated

Today's Extremes

State Highs State Lows

Community

WunderPhotos

Upload Photos

1,891,527 photos uploaded!

WunderBlog® & News

Nearby

Air Quality

  Air Quality AQ Index Pollutant
Not available.

Snow Depth

Station Depth Elevation

Earthquake Activity

City Distance Mag. Time & Date
Minimum magnitude displayed is 2.5.

Coastal Water Temperatures

Place Temperature

Stations

Nearby Weather Stations

Station Location Temp. Windchill Dew Point Humidity Wind Precip. Elev Updated Type
                   

Watches & Warnings

Winter Weather Advisory
Issued: 6:11 PM EST Feb. 8, 2016 – National Weather Service

... Winter Weather Advisory remains in effect from 10 PM this
evening to midnight EST Tuesday night...

* precipitation type... snow.

* Accumulations... snow accumulation of 1 to 3 inches... with
locally higher amounts particularly in the northwest suburbs.

* Timing... a mixture of rain and snow will develop this evening.
Precipitation will turn to all snow around or shortly after
midnight.

* Impacts... snow covered roads and travel disruptions.

* Winds... north 5 to 10 mph.

* Temperatures... in the lower to middle 30s.

Precautionary/preparedness actions...

A Winter Weather Advisory for snow means that periods of snow
will cause primarily travel difficulties. Be prepared for snow
covered roads and limited visibilities... and use caution while
driving.